createdAt,value
2022-09-16T00:02:45.277Z,59.10
2022-09-16T00:05:52.186Z,59.20
2022-09-16T00:09:01.068Z,59.50
2022-09-16T00:12:04.515Z,60.30
2022-09-16T00:15:09.945Z,59.70
2022-09-16T00:18:13.478Z,59.90
2022-09-16T00:21:17.480Z,60.00
2022-09-16T00:24:22.075Z,60.00
2022-09-16T00:27:25.388Z,60.10
2022-09-16T00:30:28.659Z,60.10
2022-09-16T00:33:33.129Z,60.20
2022-09-16T00:36:36.805Z,60.20
2022-09-16T00:39:41.500Z,60.80
2022-09-16T00:42:44.728Z,60.30
2022-09-16T00:45:55.699Z,60.40
2022-09-16T00:49:02.990Z,60.30
2022-09-16T00:52:08.418Z,60.50
2022-09-16T00:55:18.868Z,60.70
2022-09-16T00:58:27.970Z,60.90
2022-09-16T01:01:32.266Z,60.90
2022-09-16T01:04:44.256Z,61.00
2022-09-16T01:07:51.030Z,60.70
2022-09-16T01:10:56.091Z,60.90
2022-09-16T01:14:21.515Z,61.60
2022-09-16T01:17:45.407Z,60.90
2022-09-16T01:21:34.682Z,61.60
2022-09-16T01:24:55.584Z,62.30
2022-09-16T01:28:36.808Z,62.70
2022-09-16T01:31:51.342Z,62.80
2022-09-16T01:35:04.668Z,62.30
2022-09-16T01:38:27.613Z,62.30
2022-09-16T01:41:43.539Z,62.60
2022-09-16T01:44:58.136Z,62.90
2022-09-16T01:48:13.675Z,62.90
2022-09-16T01:51:26.931Z,63.70
2022-09-16T01:54:40.436Z,63.10
2022-09-16T01:57:54.542Z,63.40
2022-09-16T02:01:06.303Z,63.60
2022-09-16T02:04:18.012Z,63.50
2022-09-16T02:07:26.775Z,63.50
2022-09-16T02:10:34.746Z,63.30
2022-09-16T02:13:42.951Z,63.30
2022-09-16T02:16:55.066Z,63.50
2022-09-16T02:20:06.767Z,63.80
2022-09-16T02:23:18.785Z,63.90
2022-09-16T02:26:29.171Z,64.10
2022-09-16T02:29:40.488Z,64.60
2022-09-16T02:32:49.780Z,64.00
2022-09-16T02:35:56.935Z,64.00
2022-09-16T02:39:09.551Z,64.10
2022-09-16T02:42:13.075Z,64.40
2022-09-16T02:45:17.253Z,64.00
2022-09-16T02:48:29.807Z,63.90
2022-09-16T02:51:47.415Z,64.50
2022-09-16T02:55:02.394Z,64.40
2022-09-16T02:58:06.529Z,63.90
2022-09-16T03:01:13.940Z,64.30
2022-09-16T03:04:20.087Z,64.30
2022-09-16T03:07:24.762Z,64.60
2022-09-16T03:10:40.665Z,64.90
2022-09-16T03:13:55.951Z,65.00
2022-09-16T03:17:20.030Z,65.50
2022-09-16T03:20:38.387Z,65.90
2022-09-16T03:24:04.798Z,66.40
2022-09-16T03:27:16.173Z,66.00
2022-09-16T03:30:20.011Z,65.80
2022-09-16T03:33:33.536Z,65.70
2022-09-16T03:36:45.355Z,65.40
2022-09-16T03:39:54.225Z,66.00
2022-09-16T03:42:59.365Z,66.20
2022-09-16T03:46:02.581Z,66.10
2022-09-16T03:49:06.106Z,66.10
2022-09-16T03:52:09.518Z,66.10
2022-09-16T03:55:15.758Z,66.10
2022-09-16T03:58:18.886Z,66.20
2022-09-16T04:01:22.047Z,66.10
2022-09-16T04:04:25.547Z,66.20
2022-09-16T04:07:29.096Z,66.10
2022-09-16T04:10:34.823Z,65.90
2022-09-16T04:13:38.145Z,66.00
2022-09-16T04:16:45.026Z,65.90
2022-09-16T04:19:48.777Z,65.90
2022-09-16T04:22:51.964Z,66.00
2022-09-16T04:25:57.893Z,66.00
2022-09-16T04:29:01.208Z,66.20
2022-09-16T04:32:04.436Z,66.10
2022-09-16T04:35:09.307Z,66.30
2022-09-16T04:38:12.611Z,66.50
2022-09-16T04:41:20.679Z,66.50
2022-09-16T04:44:23.807Z,66.70
2022-09-16T04:47:26.947Z,66.70
2022-09-16T04:50:30.077Z,67.20
2022-09-16T04:53:33.277Z,66.70
2022-09-16T04:56:38.085Z,66.80
2022-09-16T04:59:41.267Z,67.40
2022-09-16T05:02:46.649Z,66.90
2022-09-16T05:05:49.743Z,66.90
2022-09-16T05:08:54.804Z,66.80
2022-09-16T05:11:59.399Z,67.00
2022-09-16T05:15:02.587Z,67.10
2022-09-16T05:18:05.818Z,67.00
2022-09-16T05:21:11.727Z,66.90
2022-09-16T05:24:15.935Z,67.20
2022-09-16T05:27:20.198Z,67.40
2022-09-16T05:30:26.112Z,68.40
2022-09-16T05:33:29.558Z,67.20
2022-09-16T05:36:37.409Z,67.40
2022-09-16T05:39:40.618Z,68.60
2022-09-16T05:42:45.248Z,68.70
2022-09-16T05:45:52.866Z,69.20
2022-09-16T05:48:56.378Z,69.50
2022-09-16T05:51:59.763Z,69.10
2022-09-16T05:55:02.911Z,68.80
2022-09-16T05:58:07.568Z,68.60
2022-09-16T06:01:14.423Z,68.30
2022-09-16T06:04:17.730Z,68.10
2022-09-16T06:07:20.811Z,68.40
2022-09-16T06:10:24.530Z,69.40
2022-09-16T06:13:29.369Z,68.90
2022-09-16T06:16:33.639Z,68.30
2022-09-16T06:19:36.758Z,67.60
2022-09-16T06:22:39.994Z,67.30
2022-09-16T06:25:43.154Z,67.10
2022-09-16T06:28:48.974Z,67.00
2022-09-16T06:31:52.199Z,67.60
2022-09-16T06:34:55.348Z,67.20
2022-09-16T06:37:59.862Z,67.50
2022-09-16T06:41:05.703Z,67.40
2022-09-16T06:44:11.093Z,67.30
2022-09-16T06:47:14.753Z,67.60
2022-09-16T06:50:18.084Z,67.50
2022-09-16T06:53:21.199Z,67.80
2022-09-16T06:56:24.380Z,68.20
2022-09-16T06:59:28.935Z,68.30
2022-09-16T07:02:32.345Z,68.40
2022-09-16T07:05:35.751Z,68.20
2022-09-16T07:08:40.028Z,67.90
2022-09-16T07:11:43.174Z,67.80
2022-09-16T07:14:47.699Z,67.70
2022-09-16T07:17:56.015Z,67.90
2022-09-16T07:21:04.273Z,68.30
2022-09-16T07:24:07.642Z,68.70
2022-09-16T07:27:10.820Z,68.00
2022-09-16T07:30:15.873Z,68.20
2022-09-16T07:33:19.049Z,68.50
2022-09-16T07:36:25.665Z,68.90
2022-09-16T07:39:28.933Z,68.70
2022-09-16T07:42:32.106Z,68.10
2022-09-16T07:45:36.685Z,68.80
2022-09-16T07:48:41.077Z,68.60
2022-09-16T07:51:44.977Z,68.40
2022-09-16T07:54:49.783Z,67.90
2022-09-16T07:57:52.893Z,68.00
2022-09-16T08:01:03.318Z,67.00
2022-09-16T08:04:07.320Z,66.90
2022-09-16T08:07:10.479Z,66.80
2022-09-16T08:10:13.638Z,67.10
2022-09-16T08:13:17.050Z,67.00
2022-09-16T08:16:23.599Z,66.90
2022-09-16T08:19:27.183Z,67.10
2022-09-16T08:22:30.801Z,66.80
2022-09-16T08:25:34.044Z,66.50
2022-09-16T08:28:51.183Z,66.30
2022-09-16T08:32:03.652Z,65.60
2022-09-16T08:35:08.604Z,65.00
2022-09-16T08:38:13.464Z,64.30
2022-09-16T08:42:03.121Z,63.40
2022-09-16T08:45:26.144Z,61.50
2022-09-16T08:48:44.784Z,61.30
2022-09-16T08:51:48.850Z,61.50
2022-09-16T08:54:57.151Z,62.10
2022-09-16T08:58:07.205Z,61.70
2022-09-16T09:01:24.222Z,61.00
2022-09-16T09:04:29.369Z,60.30
2022-09-16T09:07:50.783Z,60.30
2022-09-16T09:11:01.365Z,60.20
2022-09-16T09:14:31.164Z,60.60
2022-09-16T09:17:55.900Z,60.60
2022-09-16T09:21:20.372Z,61.10
2022-09-16T09:24:41.984Z,61.70
2022-09-16T09:28:00.496Z,63.00
2022-09-16T09:31:13.741Z,63.00
2022-09-16T09:34:35.942Z,64.10
2022-09-16T09:38:09.350Z,64.20
2022-09-16T09:41:19.617Z,64.90
2022-09-16T09:44:47.524Z,64.90
2022-09-16T09:47:58.632Z,65.70
2022-09-16T09:51:07.856Z,64.90
2022-09-16T09:54:29.594Z,64.70
2022-09-16T09:57:40.806Z,63.90
2022-09-16T10:00:44.045Z,63.50
2022-09-16T10:03:49.149Z,63.10
2022-09-16T10:06:57.536Z,62.70
2022-09-16T10:10:15.099Z,61.90
2022-09-16T10:13:19.432Z,61.60
2022-09-16T10:16:27.399Z,61.60
2022-09-16T10:19:33.303Z,60.60
2022-09-16T10:22:36.910Z,60.30
2022-09-16T10:25:43.609Z,59.90
2022-09-16T10:28:57.516Z,60.00
2022-09-16T10:32:09.431Z,60.00
2022-09-16T10:35:23.414Z,59.70
2022-09-16T10:38:36.966Z,59.40
2022-09-16T10:41:46.432Z,60.00
2022-09-16T10:44:52.476Z,58.80
2022-09-16T10:48:04.882Z,59.10
2022-09-16T10:51:25.577Z,59.50
2022-09-16T10:54:29.637Z,60.20
2022-09-16T10:57:36.335Z,60.10
2022-09-16T11:00:52.625Z,60.30
2022-09-16T11:04:33.178Z,60.70
2022-09-16T11:07:49.858Z,61.30
2022-09-16T11:11:04.908Z,61.50
2022-09-16T11:14:23.965Z,61.90
2022-09-16T11:17:50.383Z,62.40
2022-09-16T11:21:26.708Z,63.00
2022-09-16T11:25:23.572Z,63.20
2022-09-16T11:28:51.298Z,63.20
2022-09-16T11:32:05.694Z,63.30
2022-09-16T11:35:50.594Z,63.10
2022-09-16T11:39:14.344Z,63.40
2022-09-16T11:42:28.868Z,63.30
2022-09-16T11:45:51.583Z,63.40
2022-09-16T11:49:16.775Z,63.60
2022-09-16T11:52:42.079Z,65.00
2022-09-16T11:55:54.967Z,65.70
2022-09-16T11:59:06.436Z,65.90
2022-09-16T12:02:22.320Z,65.90
2022-09-16T12:05:36.844Z,65.90
2022-09-16T12:08:56.436Z,65.70
2022-09-16T12:12:12.029Z,65.60
2022-09-16T12:15:24.132Z,65.90
2022-09-16T12:18:33.201Z,65.90
2022-09-16T12:21:45.845Z,66.00
2022-09-16T12:24:58.286Z,65.40
2022-09-16T12:28:08.877Z,65.00
2022-09-16T12:31:24.554Z,64.30
2022-09-16T12:34:35.571Z,64.40
2022-09-16T12:37:48.290Z,64.50
2022-09-16T12:41:14.031Z,63.80
2022-09-16T12:44:50.743Z,63.60
2022-09-16T12:48:41.230Z,63.20
2022-09-16T12:52:13.881Z,62.40
2022-09-16T12:55:46.842Z,62.20
2022-09-16T12:59:17.807Z,62.20
2022-09-16T13:02:25.242Z,61.60
2022-09-16T13:05:33.587Z,61.80
2022-09-16T13:08:37.545Z,62.00
2022-09-16T13:15:08.328Z,61.80
2022-09-16T13:18:27.892Z,61.90
2022-09-16T13:21:44.485Z,62.00
2022-09-16T13:24:55.592Z,61.70
2022-09-16T13:28:03.325Z,61.60
2022-09-16T13:31:29.324Z,61.40
2022-09-16T13:34:32.825Z,60.50
2022-09-16T13:37:35.856Z,60.80
2022-09-16T13:40:39.217Z,60.80
2022-09-16T13:43:54.766Z,60.00
2022-09-16T13:47:16.484Z,59.20
2022-09-16T13:50:27.653Z,58.90
2022-09-16T13:53:34.398Z,58.80
2022-09-16T13:56:57.133Z,59.20
2022-09-16T14:00:14.718Z,58.90
2022-09-16T14:03:38.136Z,58.40
2022-09-16T14:07:11.556Z,58.10
2022-09-16T14:10:24.409Z,57.50
2022-09-16T14:13:39.315Z,57.40
2022-09-16T14:16:46.119Z,57.40
2022-09-16T14:19:54.609Z,57.20
2022-09-16T14:23:06.342Z,57.00
2022-09-16T14:26:14.540Z,56.90
2022-09-16T14:29:17.581Z,54.50
2022-09-16T14:32:22.103Z,54.70
2022-09-16T14:35:27.340Z,53.90
2022-09-16T14:38:46.713Z,53.50
2022-09-16T14:41:54.129Z,52.80
2022-09-16T14:44:59.722Z,52.60
2022-09-16T14:48:10.496Z,52.50
2022-09-16T14:51:24.466Z,51.90
2022-09-16T14:54:29.522Z,52.30
2022-09-16T14:57:33.742Z,53.10
2022-09-16T15:00:45.401Z,53.20
2022-09-16T15:03:56.270Z,53.60
2022-09-16T15:07:11.916Z,52.70
2022-09-16T15:10:24.643Z,52.60
2022-09-16T15:13:31.309Z,52.30
2022-09-16T15:16:49.128Z,53.00
2022-09-16T15:19:58.674Z,52.40
2022-09-16T15:23:03.614Z,53.00
2022-09-16T15:26:16.264Z,52.50
2022-09-16T15:29:32.098Z,51.80
2022-09-16T15:32:45.572Z,51.50
2022-09-16T15:35:52.057Z,51.10
2022-09-16T15:38:58.681Z,51.80
2022-09-16T15:42:13.749Z,51.20
2022-09-16T15:45:20.779Z,52.20
2022-09-16T15:48:26.043Z,52.80
2022-09-16T15:51:38.919Z,53.50
2022-09-16T15:54:52.586Z,54.20
2022-09-16T15:58:04.199Z,55.20
2022-09-16T16:01:14.963Z,55.60
2022-09-16T16:04:26.930Z,56.30
2022-09-16T16:07:47.358Z,57.90
2022-09-16T16:11:09.472Z,57.40
2022-09-16T16:14:12.494Z,57.80
2022-09-16T16:17:19.164Z,57.70
2022-09-16T16:20:22.933Z,58.10
2022-09-16T16:23:27.348Z,58.30
2022-09-16T16:26:31.272Z,58.20
2022-09-16T16:29:34.300Z,59.20
2022-09-16T16:32:38.589Z,59.60
2022-09-16T16:35:42.491Z,59.90
2022-09-16T16:38:48.203Z,60.70
2022-09-16T16:41:53.999Z,61.50
2022-09-16T16:44:57.502Z,60.80
2022-09-16T16:48:00.874Z,61.30
2022-09-16T16:51:07.720Z,61.10
2022-09-16T16:54:14.125Z,61.20
2022-09-16T16:57:17.291Z,61.60
2022-09-16T17:00:20.652Z,61.30
2022-09-16T17:03:23.711Z,61.30
2022-09-16T17:06:26.690Z,62.10
2022-09-16T17:09:31.188Z,61.60
2022-09-16T17:12:34.252Z,62.30
2022-09-16T17:15:37.298Z,62.50
2022-09-16T17:18:42.404Z,62.00
2022-09-16T17:21:49.757Z,62.40
2022-09-16T17:24:54.033Z,62.80
2022-09-16T17:27:57.314Z,62.50
2022-09-16T17:31:01.251Z,62.20
2022-09-16T17:34:09.695Z,62.30
2022-09-16T17:37:14.702Z,62.70
2022-09-16T17:40:21.590Z,62.70
2022-09-16T17:43:32.160Z,63.10
2022-09-16T17:46:36.660Z,63.40
2022-09-16T17:49:39.778Z,63.30
2022-09-16T17:52:43.217Z,63.70
2022-09-16T17:55:48.389Z,63.10
2022-09-16T17:58:54.431Z,63.60
2022-09-16T18:01:59.114Z,64.00
2022-09-16T18:05:02.257Z,64.00
2022-09-16T18:08:06.348Z,64.20
2022-09-16T18:11:13.527Z,64.40
2022-09-16T18:14:19.139Z,64.30
2022-09-16T18:17:25.840Z,64.40
2022-09-16T18:20:28.842Z,64.50
2022-09-16T18:23:32.260Z,64.50
2022-09-16T18:26:36.533Z,64.60
2022-09-16T18:29:40.071Z,64.70
2022-09-16T18:32:43.171Z,65.40
2022-09-16T18:35:46.939Z,64.60
2022-09-16T18:38:52.779Z,64.80
2022-09-16T18:41:57.234Z,65.30
2022-09-16T18:45:00.313Z,65.40
2022-09-16T18:48:03.765Z,65.30
2022-09-16T18:51:07.445Z,65.60
2022-09-16T18:54:16.351Z,66.00
2022-09-16T18:57:23.047Z,66.60
2022-09-16T19:00:26.069Z,66.40
2022-09-16T19:03:29.176Z,66.30
2022-09-16T19:06:35.670Z,66.30
2022-09-16T19:09:40.718Z,67.10
2022-09-16T19:12:45.253Z,66.60
2022-09-16T19:15:48.209Z,66.80
2022-09-16T19:18:53.091Z,66.70
2022-09-16T19:21:56.507Z,67.40
2022-09-16T19:25:01.487Z,67.20
2022-09-16T19:28:06.692Z,67.40
2022-09-16T19:31:13.082Z,67.70
2022-09-16T19:34:17.757Z,67.80
2022-09-16T19:37:20.955Z,67.90
2022-09-16T19:40:24.290Z,67.90
2022-09-16T19:43:28.921Z,67.80
2022-09-16T19:46:35.767Z,68.10
2022-09-16T19:49:38.864Z,68.40
2022-09-16T19:52:41.940Z,68.00
2022-09-16T19:55:44.960Z,68.00
2022-09-16T19:58:50.284Z,68.10
2022-09-16T20:01:53.367Z,68.30
2022-09-16T20:04:56.391Z,68.10
2022-09-16T20:07:59.388Z,68.30
2022-09-16T20:11:07.748Z,68.30
2022-09-16T20:14:18.875Z,68.60
2022-09-16T20:17:23.838Z,68.80
2022-09-16T20:20:27.208Z,68.60
2022-09-16T20:23:30.575Z,68.50
2022-09-16T20:26:34.634Z,68.60
2022-09-16T20:29:41.524Z,68.80
2022-09-16T20:32:46.238Z,69.30
2022-09-16T20:35:49.609Z,69.20
2022-09-16T20:38:53.559Z,69.30
2022-09-16T20:41:58.464Z,69.30
2022-09-16T20:45:03.495Z,69.40
2022-09-16T20:48:07.003Z,69.70
2022-09-16T20:51:14.033Z,70.00
2022-09-16T20:54:18.532Z,69.70
2022-09-16T20:57:21.514Z,69.80
2022-09-16T21:00:26.152Z,69.80
2022-09-16T21:03:29.310Z,70.10
2022-09-16T21:06:34.774Z,70.10
2022-09-16T21:09:38.069Z,70.00
2022-09-16T21:12:41.246Z,69.90
2022-09-16T21:15:55.752Z,69.80
2022-09-16T21:19:00.638Z,70.00
2022-09-16T21:22:03.565Z,70.80
2022-09-16T21:25:07.545Z,70.30
2022-09-16T21:28:11.276Z,69.20
2022-09-16T21:31:18.411Z,69.40
2022-09-16T21:34:22.670Z,69.60
2022-09-16T21:37:25.754Z,70.10
2022-09-16T21:40:29.043Z,71.00
2022-09-16T21:43:36.171Z,69.10
2022-09-16T21:46:45.020Z,69.60
2022-09-16T21:49:49.855Z,69.70
2022-09-16T21:52:52.840Z,69.90
2022-09-16T21:56:02.459Z,69.80
2022-09-16T21:59:11.647Z,70.30
2022-09-16T22:02:17.757Z,70.10
2022-09-16T22:05:21.209Z,70.30
2022-09-16T22:08:24.625Z,70.50
2022-09-16T22:11:30.920Z,70.70
2022-09-16T22:14:34.092Z,71.40
2022-09-16T22:17:40.583Z,71.60
2022-09-16T22:20:45.149Z,71.60
2022-09-16T22:23:48.477Z,71.40
2022-09-16T22:26:53.312Z,71.20
2022-09-16T22:29:57.034Z,71.10
2022-09-16T22:33:01.675Z,70.70
2022-09-16T22:36:07.026Z,70.70
2022-09-16T22:39:14.919Z,70.50
2022-09-16T22:42:17.950Z,70.50
2022-09-16T22:45:20.955Z,70.40
2022-09-16T22:48:25.307Z,70.20
2022-09-16T22:51:29.675Z,70.10
2022-09-16T22:54:32.629Z,70.00
2022-09-16T22:57:35.732Z,69.90
2022-09-16T23:00:40.587Z,69.80
2022-09-16T23:03:46.491Z,69.40
2022-09-16T23:06:49.496Z,69.90
2022-09-16T23:09:52.532Z,69.70
2022-09-16T23:12:55.567Z,69.70
2022-09-16T23:16:03.588Z,69.70
2022-09-16T23:19:11.555Z,69.90
2022-09-16T23:22:14.477Z,69.80
2022-09-16T23:25:17.561Z,70.10
2022-09-16T23:28:20.774Z,69.80
2022-09-16T23:31:27.082Z,69.70
2022-09-16T23:34:31.511Z,70.20
2022-09-16T23:37:34.558Z,69.70
2022-09-16T23:40:38.288Z,69.60
2022-09-16T23:43:43.157Z,69.70
2022-09-16T23:46:46.640Z,69.70
2022-09-16T23:49:53.183Z,69.80
2022-09-16T23:52:56.344Z,69.40
2022-09-16T23:55:59.412Z,69.70
2022-09-16T23:59:02.722Z,69.60
